sensor_id;sensor_type;location;lat;lon;timestamp;P1;durP1;ratioP1;P2;durP2;ratioP2
39188;SDS011;24915;50.858;4.376;2022-12-28T00:02:07;13.00;;;4.90;;
39188;SDS011;24915;50.858;4.376;2022-12-28T00:04:33;11.57;;;5.35;;
39188;SDS011;24915;50.858;4.376;2022-12-28T00:06:58;7.30;;;5.32;;
39188;SDS011;24915;50.858;4.376;2022-12-28T00:09:24;11.98;;;5.03;;
39188;SDS011;24915;50.858;4.376;2022-12-28T00:11:50;12.70;;;5.03;;
39188;SDS011;24915;50.858;4.376;2022-12-28T00:14:15;8.32;;;4.75;;
39188;SDS011;24915;50.858;4.376;2022-12-28T00:16:41;8.23;;;4.78;;
39188;SDS011;24915;50.858;4.376;2022-12-28T00:19:11;7.82;;;4.78;;
39188;SDS011;24915;50.858;4.376;2022-12-28T00:21:38;9.75;;;4.90;;
39188;SDS011;24915;50.858;4.376;2022-12-28T00:24:05;7.13;;;5.03;;
39188;SDS011;24915;50.858;4.376;2022-12-28T00:26:33;12.38;;;4.93;;
39188;SDS011;24915;50.858;4.376;2022-12-28T00:29:00;9.70;;;4.70;;
39188;SDS011;24915;50.858;4.376;2022-12-28T00:31:26;9.55;;;4.90;;
39188;SDS011;24915;50.858;4.376;2022-12-28T00:33:52;13.88;;;4.43;;
39188;SDS011;24915;50.858;4.376;2022-12-28T00:36:18;9.90;;;4.60;;
39188;SDS011;24915;50.858;4.376;2022-12-28T00:38:44;9.77;;;4.80;;
39188;SDS011;24915;50.858;4.376;2022-12-28T00:41:09;7.55;;;5.00;;
39188;SDS011;24915;50.858;4.376;2022-12-28T00:43:35;10.60;;;5.35;;
39188;SDS011;24915;50.858;4.376;2022-12-28T00:46:01;6.95;;;4.60;;
39188;SDS011;24915;50.858;4.376;2022-12-28T00:48:27;8.25;;;4.72;;
39188;SDS011;24915;50.858;4.376;2022-12-28T00:51:26;9.68;;;5.03;;
39188;SDS011;24915;50.858;4.376;2022-12-28T00:53:45;12.32;;;5.10;;
39188;SDS011;24915;50.858;4.376;2022-12-28T00:56:12;10.05;;;5.20;;
39188;SDS011;24915;50.858;4.376;2022-12-28T00:58:43;9.05;;;5.22;;
39188;SDS011;24915;50.858;4.376;2022-12-28T01:01:10;8.93;;;5.07;;
39188;SDS011;24915;50.858;4.376;2022-12-28T01:03:44;7.82;;;4.82;;
39188;SDS011;24915;50.858;4.376;2022-12-28T01:06:10;10.95;;;5.20;;
39188;SDS011;24915;50.858;4.376;2022-12-28T01:08:37;8.23;;;5.07;;
39188;SDS011;24915;50.858;4.376;2022-12-28T01:11:10;9.40;;;5.10;;
39188;SDS011;24915;50.858;4.376;2022-12-28T01:13:39;7.40;;;5.03;;
39188;SDS011;24915;50.858;4.376;2022-12-28T01:16:15;8.38;;;4.97;;
39188;SDS011;24915;50.858;4.376;2022-12-28T01:18:43;10.98;;;4.88;;
39188;SDS011;24915;50.858;4.376;2022-12-28T01:21:10;8.52;;;4.28;;
39188;SDS011;24915;50.858;4.376;2022-12-28T01:23:41;8.25;;;4.40;;
39188;SDS011;24915;50.858;4.376;2022-12-28T01:26:08;5.72;;;4.80;;
39188;SDS011;24915;50.858;4.376;2022-12-28T01:28:34;11.63;;;4.75;;
39188;SDS011;24915;50.858;4.376;2022-12-28T01:31:04;14.00;;;5.88;;
39188;SDS011;24915;50.858;4.376;2022-12-28T01:33:34;7.43;;;4.75;;
39188;SDS011;24915;50.858;4.376;2022-12-28T01:38:32;9.05;;;5.28;;
39188;SDS011;24915;50.858;4.376;2022-12-28T01:40:58;7.63;;;4.90;;
39188;SDS011;24915;50.858;4.376;2022-12-28T01:46:31;8.05;;;5.00;;
39188;SDS011;24915;50.858;4.376;2022-12-28T01:52:00;9.20;;;5.47;;
39188;SDS011;24915;50.858;4.376;2022-12-28T01:54:36;6.80;;;5.30;;
39188;SDS011;24915;50.858;4.376;2022-12-28T01:57:06;14.90;;;5.47;;
39188;SDS011;24915;50.858;4.376;2022-12-28T01:59:32;8.18;;;5.40;;
39188;SDS011;24915;50.858;4.376;2022-12-28T02:02:04;9.15;;;5.72;;
39188;SDS011;24915;50.858;4.376;2022-12-28T02:04:30;9.80;;;6.43;;
39188;SDS011;24915;50.858;4.376;2022-12-28T02:06:56;8.02;;;5.35;;
39188;SDS011;24915;50.858;4.376;2022-12-28T02:09:24;11.30;;;5.68;;
39188;SDS011;24915;50.858;4.376;2022-12-28T02:12:03;13.32;;;6.28;;
39188;SDS011;24915;50.858;4.376;2022-12-28T02:14:29;8.93;;;5.63;;
39188;SDS011;24915;50.858;4.376;2022-12-28T02:16:55;10.05;;;6.25;;
39188;SDS011;24915;50.858;4.376;2022-12-28T02:19:24;9.85;;;5.88;;
39188;SDS011;24915;50.858;4.376;2022-12-28T02:30:12;8.23;;;5.38;;
39188;SDS011;24915;50.858;4.376;2022-12-28T02:37:55;9.27;;;4.63;;
39188;SDS011;24915;50.858;4.376;2022-12-28T02:41:20;10.55;;;4.68;;
39188;SDS011;24915;50.858;4.376;2022-12-28T02:43:43;9.48;;;4.43;;
39188;SDS011;24915;50.858;4.376;2022-12-28T02:48:55;8.75;;;4.88;;
39188;SDS011;24915;50.858;4.376;2022-12-28T03:00:33;7.55;;;4.32;;
39188;SDS011;24915;50.858;4.376;2022-12-28T03:09:03;7.40;;;4.57;;
39188;SDS011;24915;50.858;4.376;2022-12-28T03:11:47;10.88;;;4.57;;
39188;SDS011;24915;50.858;4.376;2022-12-28T03:14:20;9.10;;;4.32;;
39188;SDS011;24915;50.858;4.376;2022-12-28T03:16:53;13.02;;;4.57;;
39188;SDS011;24915;50.858;4.376;2022-12-28T03:19:45;7.60;;;4.18;;
39188;SDS011;24915;50.858;4.376;2022-12-28T03:22:33;13.02;;;4.30;;
39188;SDS011;24915;50.858;4.376;2022-12-28T03:25:21;9.70;;;4.03;;
39188;SDS011;24915;50.858;4.376;2022-12-28T03:28:08;13.93;;;4.43;;
39188;SDS011;24915;50.858;4.376;2022-12-28T03:30:59;10.10;;;3.78;;
39188;SDS011;24915;50.858;4.376;2022-12-28T03:33:35;7.07;;;4.47;;
39188;SDS011;24915;50.858;4.376;2022-12-28T03:36:19;12.95;;;3.75;;
39188;SDS011;24915;50.858;4.376;2022-12-28T03:42:10;7.30;;;4.43;;
39188;SDS011;24915;50.858;4.376;2022-12-28T03:45:21;7.97;;;3.80;;
39188;SDS011;24915;50.858;4.376;2022-12-28T03:48:02;10.70;;;4.13;;
39188;SDS011;24915;50.858;4.376;2022-12-28T03:50:30;6.22;;;3.78;;
39188;SDS011;24915;50.858;4.376;2022-12-28T03:53:03;10.68;;;4.70;;
39188;SDS011;24915;50.858;4.376;2022-12-28T03:55:29;10.27;;;4.13;;
39188;SDS011;24915;50.858;4.376;2022-12-28T03:57:55;8.00;;;4.28;;
39188;SDS011;24915;50.858;4.376;2022-12-28T04:00:21;13.20;;;4.60;;
39188;SDS011;24915;50.858;4.376;2022-12-28T04:02:46;13.40;;;4.85;;
39188;SDS011;24915;50.858;4.376;2022-12-28T04:05:12;10.65;;;4.80;;
39188;SDS011;24915;50.858;4.376;2022-12-28T04:07:39;11.02;;;4.30;;
39188;SDS011;24915;50.858;4.376;2022-12-28T04:10:05;9.52;;;4.18;;
39188;SDS011;24915;50.858;4.376;2022-12-28T04:12:31;10.90;;;4.60;;
39188;SDS011;24915;50.858;4.376;2022-12-28T04:14:56;10.85;;;4.22;;
39188;SDS011;24915;50.858;4.376;2022-12-28T04:17:22;12.73;;;4.90;;
39188;SDS011;24915;50.858;4.376;2022-12-28T04:19:47;8.85;;;4.30;;
39188;SDS011;24915;50.858;4.376;2022-12-28T04:22:13;10.80;;;4.38;;
39188;SDS011;24915;50.858;4.376;2022-12-28T04:24:39;15.68;;;5.05;;
39188;SDS011;24915;50.858;4.376;2022-12-28T04:27:04;12.55;;;4.97;;
39188;SDS011;24915;50.858;4.376;2022-12-28T04:29:30;12.50;;;4.88;;
39188;SDS011;24915;50.858;4.376;2022-12-28T04:31:56;11.80;;;4.70;;
39188;SDS011;24915;50.858;4.376;2022-12-28T04:34:21;8.70;;;4.70;;
39188;SDS011;24915;50.858;4.376;2022-12-28T04:36:47;13.30;;;5.47;;
39188;SDS011;24915;50.858;4.376;2022-12-28T04:39:12;15.95;;;5.15;;
39188;SDS011;24915;50.858;4.376;2022-12-28T04:41:38;12.15;;;5.28;;
39188;SDS011;24915;50.858;4.376;2022-12-28T04:44:04;8.27;;;4.72;;
39188;SDS011;24915;50.858;4.376;2022-12-28T04:46:30;10.55;;;4.80;;
39188;SDS011;24915;50.858;4.376;2022-12-28T04:48:56;8.98;;;4.50;;
39188;SDS011;24915;50.858;4.376;2022-12-28T04:51:22;13.10;;;5.45;;
39188;SDS011;24915;50.858;4.376;2022-12-28T04:53:50;14.18;;;4.80;;
39188;SDS011;24915;50.858;4.376;2022-12-28T04:56:17;9.75;;;4.20;;
39188;SDS011;24915;50.858;4.376;2022-12-28T04:58:43;14.27;;;4.00;;
39188;SDS011;24915;50.858;4.376;2022-12-28T05:01:15;11.88;;;4.03;;
39188;SDS011;24915;50.858;4.376;2022-12-28T05:03:42;8.80;;;3.50;;
39188;SDS011;24915;50.858;4.376;2022-12-28T05:06:10;11.52;;;3.15;;
39188;SDS011;24915;50.858;4.376;2022-12-28T05:08:38;9.93;;;3.08;;
39188;SDS011;24915;50.858;4.376;2022-12-28T05:11:04;9.38;;;2.78;;
39188;SDS011;24915;50.858;4.376;2022-12-28T05:13:32;11.82;;;2.65;;
39188;SDS011;24915;50.858;4.376;2022-12-28T05:16:05;8.02;;;3.03;;
39188;SDS011;24915;50.858;4.376;2022-12-28T05:18:33;11.48;;;3.05;;
39188;SDS011;24915;50.858;4.376;2022-12-28T05:21:03;6.07;;;2.60;;
39188;SDS011;24915;50.858;4.376;2022-12-28T05:23:38;11.88;;;2.83;;
39188;SDS011;24915;50.858;4.376;2022-12-28T05:26:04;6.97;;;2.50;;
39188;SDS011;24915;50.858;4.376;2022-12-28T05:28:30;4.25;;;2.25;;
39188;SDS011;24915;50.858;4.376;2022-12-28T05:31:03;7.07;;;2.08;;
39188;SDS011;24915;50.858;4.376;2022-12-28T05:33:31;6.72;;;2.50;;
39188;SDS011;24915;50.858;4.376;2022-12-28T05:36:02;11.48;;;2.40;;
39188;SDS011;24915;50.858;4.376;2022-12-28T05:38:28;7.68;;;2.03;;
39188;SDS011;24915;50.858;4.376;2022-12-28T05:40:54;9.77;;;2.50;;
39188;SDS011;24915;50.858;4.376;2022-12-28T05:43:20;7.25;;;2.22;;
39188;SDS011;24915;50.858;4.376;2022-12-28T05:45:45;4.95;;;2.13;;
39188;SDS011;24915;50.858;4.376;2022-12-28T05:48:11;4.63;;;2.17;;
39188;SDS011;24915;50.858;4.376;2022-12-28T05:50:36;9.75;;;2.58;;
39188;SDS011;24915;50.858;4.376;2022-12-28T05:53:02;5.57;;;2.28;;
39188;SDS011;24915;50.858;4.376;2022-12-28T05:55:28;3.97;;;2.10;;
39188;SDS011;24915;50.858;4.376;2022-12-28T05:57:54;4.97;;;2.10;;
39188;SDS011;24915;50.858;4.376;2022-12-28T06:00:22;6.88;;;2.00;;
39188;SDS011;24915;50.858;4.376;2022-12-28T06:02:48;5.18;;;2.30;;
39188;SDS011;24915;50.858;4.376;2022-12-28T06:05:13;6.15;;;2.58;;
39188;SDS011;24915;50.858;4.376;2022-12-28T06:07:39;4.68;;;2.08;;
39188;SDS011;24915;50.858;4.376;2022-12-28T06:10:05;5.75;;;2.47;;
39188;SDS011;24915;50.858;4.376;2022-12-28T06:12:31;11.25;;;2.28;;
39188;SDS011;24915;50.858;4.376;2022-12-28T06:14:56;7.80;;;2.63;;
39188;SDS011;24915;50.858;4.376;2022-12-28T06:17:22;6.85;;;2.22;;
39188;SDS011;24915;50.858;4.376;2022-12-28T06:19:48;4.78;;;2.38;;
39188;SDS011;24915;50.858;4.376;2022-12-28T06:22:13;6.85;;;2.53;;
39188;SDS011;24915;50.858;4.376;2022-12-28T06:24:39;9.25;;;2.40;;
39188;SDS011;24915;50.858;4.376;2022-12-28T06:27:04;14.38;;;2.85;;
39188;SDS011;24915;50.858;4.376;2022-12-28T06:29:30;13.10;;;2.45;;
39188;SDS011;24915;50.858;4.376;2022-12-28T06:31:56;9.60;;;2.97;;
39188;SDS011;24915;50.858;4.376;2022-12-28T06:34:24;8.88;;;2.35;;
39188;SDS011;24915;50.858;4.376;2022-12-28T06:36:51;11.73;;;2.33;;
39188;SDS011;24915;50.858;4.376;2022-12-28T06:39:17;11.32;;;2.72;;
39188;SDS011;24915;50.858;4.376;2022-12-28T06:41:43;6.35;;;2.40;;
39188;SDS011;24915;50.858;4.376;2022-12-28T06:44:09;8.18;;;2.58;;
39188;SDS011;24915;50.858;4.376;2022-12-28T06:46:36;16.88;;;3.30;;
39188;SDS011;24915;50.858;4.376;2022-12-28T06:49:02;14.75;;;2.72;;
39188;SDS011;24915;50.858;4.376;2022-12-28T06:51:29;9.27;;;2.50;;
39188;SDS011;24915;50.858;4.376;2022-12-28T06:53:56;7.53;;;2.47;;
39188;SDS011;24915;50.858;4.376;2022-12-28T06:56:23;13.63;;;2.10;;
39188;SDS011;24915;50.858;4.376;2022-12-28T06:58:51;10.02;;;2.33;;
39188;SDS011;24915;50.858;4.376;2022-12-28T07:01:19;9.95;;;2.80;;
39188;SDS011;24915;50.858;4.376;2022-12-28T07:03:44;13.13;;;2.80;;
39188;SDS011;24915;50.858;4.376;2022-12-28T07:06:11;9.55;;;2.50;;
39188;SDS011;24915;50.858;4.376;2022-12-28T07:08:38;11.63;;;2.25;;
39188;SDS011;24915;50.858;4.376;2022-12-28T07:11:05;11.10;;;2.42;;
39188;SDS011;24915;50.858;4.376;2022-12-28T07:13:33;13.07;;;2.50;;
39188;SDS011;24915;50.858;4.376;2022-12-28T07:16:06;10.15;;;2.15;;
39188;SDS011;24915;50.858;4.376;2022-12-28T07:18:35;12.55;;;2.53;;
39188;SDS011;24915;50.858;4.376;2022-12-28T07:21:07;11.10;;;2.97;;
39188;SDS011;24915;50.858;4.376;2022-12-28T07:23:36;14.35;;;2.50;;
39188;SDS011;24915;50.858;4.376;2022-12-28T07:26:12;6.00;;;2.10;;
39188;SDS011;24915;50.858;4.376;2022-12-28T07:28:41;9.88;;;2.63;;
39188;SDS011;24915;50.858;4.376;2022-12-28T07:31:09;11.35;;;2.33;;
39188;SDS011;24915;50.858;4.376;2022-12-28T07:33:37;9.68;;;2.40;;
39188;SDS011;24915;50.858;4.376;2022-12-28T07:36:04;7.90;;;2.08;;
39188;SDS011;24915;50.858;4.376;2022-12-28T07:38:31;11.27;;;2.67;;
39188;SDS011;24915;50.858;4.376;2022-12-28T07:41:01;10.27;;;2.40;;
39188;SDS011;24915;50.858;4.376;2022-12-28T07:43:30;6.38;;;2.40;;
39188;SDS011;24915;50.858;4.376;2022-12-28T07:46:12;8.48;;;2.05;;
39188;SDS011;24915;50.858;4.376;2022-12-28T07:48:40;9.68;;;2.45;;
39188;SDS011;24915;50.858;4.376;2022-12-28T07:53:32;9.73;;;2.42;;
39188;SDS011;24915;50.858;4.376;2022-12-28T07:55:58;7.38;;;2.20;;
39188;SDS011;24915;50.858;4.376;2022-12-28T07:58:24;7.78;;;2.25;;
39188;SDS011;24915;50.858;4.376;2022-12-28T08:00:50;9.32;;;2.67;;
39188;SDS011;24915;50.858;4.376;2022-12-28T08:03:17;7.22;;;2.63;;
39188;SDS011;24915;50.858;4.376;2022-12-28T08:05:43;8.50;;;2.60;;
39188;SDS011;24915;50.858;4.376;2022-12-28T08:08:09;12.98;;;3.05;;
39188;SDS011;24915;50.858;4.376;2022-12-28T08:10:34;9.70;;;3.15;;
39188;SDS011;24915;50.858;4.376;2022-12-28T08:13:00;11.90;;;3.47;;
39188;SDS011;24915;50.858;4.376;2022-12-28T08:15:26;9.98;;;3.15;;
39188;SDS011;24915;50.858;4.376;2022-12-28T08:17:52;11.55;;;3.60;;
39188;SDS011;24915;50.858;4.376;2022-12-28T08:20:18;14.85;;;3.20;;
39188;SDS011;24915;50.858;4.376;2022-12-28T08:22:44;12.02;;;3.58;;
39188;SDS011;24915;50.858;4.376;2022-12-28T08:25:10;9.32;;;3.58;;
39188;SDS011;24915;50.858;4.376;2022-12-28T08:27:36;12.25;;;3.72;;
39188;SDS011;24915;50.858;4.376;2022-12-28T08:30:02;12.02;;;3.88;;
39188;SDS011;24915;50.858;4.376;2022-12-28T08:32:29;13.82;;;4.07;;
39188;SDS011;24915;50.858;4.376;2022-12-28T08:34:54;9.50;;;4.32;;
39188;SDS011;24915;50.858;4.376;2022-12-28T08:37:20;9.73;;;4.25;;
39188;SDS011;24915;50.858;4.376;2022-12-28T08:39:46;14.50;;;4.70;;
39188;SDS011;24915;50.858;4.376;2022-12-28T08:42:12;16.20;;;4.88;;
39188;SDS011;24915;50.858;4.376;2022-12-28T08:44:37;17.10;;;5.30;;
39188;SDS011;24915;50.858;4.376;2022-12-28T08:47:03;12.38;;;5.10;;
39188;SDS011;24915;50.858;4.376;2022-12-28T08:49:29;16.02;;;4.63;;
39188;SDS011;24915;50.858;4.376;2022-12-28T08:51:55;15.57;;;4.80;;
39188;SDS011;24915;50.858;4.376;2022-12-28T08:54:20;12.27;;;4.68;;
39188;SDS011;24915;50.858;4.376;2022-12-28T08:56:46;12.60;;;5.38;;
39188;SDS011;24915;50.858;4.376;2022-12-28T08:59:15;11.73;;;5.03;;
39188;SDS011;24915;50.858;4.376;2022-12-28T09:01:42;16.48;;;4.60;;
39188;SDS011;24915;50.858;4.376;2022-12-28T09:04:10;15.38;;;4.85;;
39188;SDS011;24915;50.858;4.376;2022-12-28T09:06:44;11.63;;;4.85;;
39188;SDS011;24915;50.858;4.376;2022-12-28T09:09:12;18.45;;;4.72;;
39188;SDS011;24915;50.858;4.376;2022-12-28T09:11:39;13.65;;;4.78;;
39188;SDS011;24915;50.858;4.376;2022-12-28T09:14:07;10.07;;;4.35;;
39188;SDS011;24915;50.858;4.376;2022-12-28T09:16:34;13.20;;;5.25;;
39188;SDS011;24915;50.858;4.376;2022-12-28T09:19:03;13.85;;;5.18;;
39188;SDS011;24915;50.858;4.376;2022-12-28T09:21:32;13.15;;;4.75;;
39188;SDS011;24915;50.858;4.376;2022-12-28T09:24:01;13.85;;;4.55;;
39188;SDS011;24915;50.858;4.376;2022-12-28T09:26:28;13.60;;;5.00;;
39188;SDS011;24915;50.858;4.376;2022-12-28T09:28:56;16.08;;;5.13;;
39188;SDS011;24915;50.858;4.376;2022-12-28T09:31:25;15.15;;;5.75;;
39188;SDS011;24915;50.858;4.376;2022-12-28T09:33:52;16.67;;;5.47;;
39188;SDS011;24915;50.858;4.376;2022-12-28T09:36:29;9.60;;;4.60;;
39188;SDS011;24915;50.858;4.376;2022-12-28T09:38:57;16.75;;;4.45;;
39188;SDS011;24915;50.858;4.376;2022-12-28T09:46:37;10.15;;;4.13;;
39188;SDS011;24915;50.858;4.376;2022-12-28T09:49:16;12.73;;;4.15;;
39188;SDS011;24915;50.858;4.376;2022-12-28T09:52:30;9.73;;;4.40;;
39188;SDS011;24915;50.858;4.376;2022-12-28T09:54:38;7.18;;;3.97;;
39188;SDS011;24915;50.858;4.376;2022-12-28T09:57:06;7.05;;;3.83;;
39188;SDS011;24915;50.858;4.376;2022-12-28T09:59:38;9.63;;;3.88;;
39188;SDS011;24915;50.858;4.376;2022-12-28T10:02:08;5.97;;;3.42;;
39188;SDS011;24915;50.858;4.376;2022-12-28T10:04:49;12.00;;;3.75;;
39188;SDS011;24915;50.858;4.376;2022-12-28T10:07:15;10.60;;;3.85;;
39188;SDS011;24915;50.858;4.376;2022-12-28T10:09:41;7.70;;;3.45;;
39188;SDS011;24915;50.858;4.376;2022-12-28T10:12:28;12.60;;;4.20;;
39188;SDS011;24915;50.858;4.376;2022-12-28T10:14:53;8.35;;;3.15;;
39188;SDS011;24915;50.858;4.376;2022-12-28T10:17:21;13.88;;;3.55;;
39188;SDS011;24915;50.858;4.376;2022-12-28T10:19:53;7.93;;;3.22;;
39188;SDS011;24915;50.858;4.376;2022-12-28T10:22:22;10.65;;;3.50;;
39188;SDS011;24915;50.858;4.376;2022-12-28T10:24:49;8.77;;;3.20;;
39188;SDS011;24915;50.858;4.376;2022-12-28T10:27:26;8.82;;;3.13;;
39188;SDS011;24915;50.858;4.376;2022-12-28T10:29:55;13.02;;;3.28;;
39188;SDS011;24915;50.858;4.376;2022-12-28T10:32:25;10.93;;;3.70;;
39188;SDS011;24915;50.858;4.376;2022-12-28T10:37:25;10.75;;;3.58;;
39188;SDS011;24915;50.858;4.376;2022-12-28T10:39:55;9.27;;;3.92;;
39188;SDS011;24915;50.858;4.376;2022-12-28T10:42:57;13.60;;;3.65;;
39188;SDS011;24915;50.858;4.376;2022-12-28T10:45:19;10.93;;;3.72;;
39188;SDS011;24915;50.858;4.376;2022-12-28T10:48:20;6.90;;;3.88;;
39188;SDS011;24915;50.858;4.376;2022-12-28T10:50:53;9.80;;;3.50;;
39188;SDS011;24915;50.858;4.376;2022-12-28T10:56:02;6.53;;;2.83;;
39188;SDS011;24915;50.858;4.376;2022-12-28T10:58:41;10.57;;;3.50;;
39188;SDS011;24915;50.858;4.376;2022-12-28T11:03:38;13.55;;;3.88;;
39188;SDS011;24915;50.858;4.376;2022-12-28T11:06:10;14.20;;;3.95;;
39188;SDS011;24915;50.858;4.376;2022-12-28T11:08:39;8.23;;;3.42;;
39188;SDS011;24915;50.858;4.376;2022-12-28T11:11:14;8.93;;;2.70;;
39188;SDS011;24915;50.858;4.376;2022-12-28T11:13:43;9.05;;;3.40;;
39188;SDS011;24915;50.858;4.376;2022-12-28T11:16:12;12.48;;;3.45;;
39188;SDS011;24915;50.858;4.376;2022-12-28T11:18:39;13.77;;;3.20;;
39188;SDS011;24915;50.858;4.376;2022-12-28T11:21:08;20.13;;;3.88;;
39188;SDS011;24915;50.858;4.376;2022-12-28T11:23:36;13.23;;;3.33;;
39188;SDS011;24915;50.858;4.376;2022-12-28T11:26:02;12.15;;;4.03;;
39188;SDS011;24915;50.858;4.376;2022-12-28T11:28:28;13.80;;;4.15;;
39188;SDS011;24915;50.858;4.376;2022-12-28T11:30:54;15.88;;;5.00;;
39188;SDS011;24915;50.858;4.376;2022-12-28T11:36:11;13.30;;;5.05;;
39188;SDS011;24915;50.858;4.376;2022-12-28T11:38:44;12.13;;;3.40;;
39188;SDS011;24915;50.858;4.376;2022-12-28T11:41:39;22.65;;;4.10;;
39188;SDS011;24915;50.858;4.376;2022-12-28T11:44:00;8.20;;;3.00;;
39188;SDS011;24915;50.858;4.376;2022-12-28T11:48:58;19.67;;;5.88;;
39188;SDS011;24915;50.858;4.376;2022-12-28T11:54:02;16.17;;;4.95;;
39188;SDS011;24915;50.858;4.376;2022-12-28T12:04:43;18.80;;;3.78;;
39188;SDS011;24915;50.858;4.376;2022-12-28T12:07:14;8.05;;;3.33;;
39188;SDS011;24915;50.858;4.376;2022-12-28T12:09:43;7.90;;;4.32;;
39188;SDS011;24915;50.858;4.376;2022-12-28T12:14:42;11.02;;;3.65;;
39188;SDS011;24915;50.858;4.376;2022-12-28T12:17:20;12.77;;;3.80;;
39188;SDS011;24915;50.858;4.376;2022-12-28T12:19:54;9.90;;;3.63;;
39188;SDS011;24915;50.858;4.376;2022-12-28T12:22:23;11.63;;;4.20;;
39188;SDS011;24915;50.858;4.376;2022-12-28T12:24:54;30.10;;;14.07;;
39188;SDS011;24915;50.858;4.376;2022-12-28T12:27:47;9.32;;;4.55;;
39188;SDS011;24915;50.858;4.376;2022-12-28T12:30:25;10.48;;;4.20;;
39188;SDS011;24915;50.858;4.376;2022-12-28T12:32:54;16.60;;;4.13;;
39188;SDS011;24915;50.858;4.376;2022-12-28T12:35:24;11.93;;;4.22;;
39188;SDS011;24915;50.858;4.376;2022-12-28T12:37:55;13.48;;;3.50;;
39188;SDS011;24915;50.858;4.376;2022-12-28T12:54:17;20.92;;;3.90;;
39188;SDS011;24915;50.858;4.376;2022-12-28T12:57:12;15.13;;;2.90;;
39188;SDS011;24915;50.858;4.376;2022-12-28T13:05:22;16.50;;;4.13;;
39188;SDS011;24915;50.858;4.376;2022-12-28T13:07:50;10.38;;;3.00;;
39188;SDS011;24915;50.858;4.376;2022-12-28T13:10:27;9.93;;;2.58;;
39188;SDS011;24915;50.858;4.376;2022-12-28T13:13:05;17.05;;;3.10;;
39188;SDS011;24915;50.858;4.376;2022-12-28T13:15:31;9.40;;;3.08;;
39188;SDS011;24915;50.858;4.376;2022-12-28T13:18:14;8.15;;;2.20;;
39188;SDS011;24915;50.858;4.376;2022-12-28T13:20:58;13.60;;;2.83;;
39188;SDS011;24915;50.858;4.376;2022-12-28T13:23:26;14.43;;;3.07;;
39188;SDS011;24915;50.858;4.376;2022-12-28T13:25:54;13.02;;;2.80;;
39188;SDS011;24915;50.858;4.376;2022-12-28T13:28:25;8.20;;;3.53;;
39188;SDS011;24915;50.858;4.376;2022-12-28T13:31:00;9.05;;;2.72;;
39188;SDS011;24915;50.858;4.376;2022-12-28T13:36:51;7.75;;;2.63;;
39188;SDS011;24915;50.858;4.376;2022-12-28T13:39:20;8.48;;;3.33;;
39188;SDS011;24915;50.858;4.376;2022-12-28T13:42:22;7.85;;;2.58;;
39188;SDS011;24915;50.858;4.376;2022-12-28T13:47:22;7.97;;;2.78;;
39188;SDS011;24915;50.858;4.376;2022-12-28T13:49:54;12.65;;;3.25;;
39188;SDS011;24915;50.858;4.376;2022-12-28T13:52:27;7.75;;;2.83;;
39188;SDS011;24915;50.858;4.376;2022-12-28T13:54:59;13.77;;;4.35;;
39188;SDS011;24915;50.858;4.376;2022-12-28T13:57:28;8.60;;;2.83;;
39188;SDS011;24915;50.858;4.376;2022-12-28T13:59:56;8.15;;;2.60;;
39188;SDS011;24915;50.858;4.376;2022-12-28T14:02:22;7.20;;;3.85;;
39188;SDS011;24915;50.858;4.376;2022-12-28T14:04:51;12.10;;;3.35;;
39188;SDS011;24915;50.858;4.376;2022-12-28T14:07:18;7.88;;;2.67;;
39188;SDS011;24915;50.858;4.376;2022-12-28T14:09:46;7.47;;;2.45;;
39188;SDS011;24915;50.858;4.376;2022-12-28T14:12:13;7.80;;;2.60;;
39188;SDS011;24915;50.858;4.376;2022-12-28T14:14:39;7.03;;;2.30;;
39188;SDS011;24915;50.858;4.376;2022-12-28T14:17:07;7.30;;;2.70;;
39188;SDS011;24915;50.858;4.376;2022-12-28T14:19:33;13.85;;;3.03;;
39188;SDS011;24915;50.858;4.376;2022-12-28T14:22:00;6.93;;;2.70;;
39188;SDS011;24915;50.858;4.376;2022-12-28T14:24:25;9.05;;;2.65;;
39188;SDS011;24915;50.858;4.376;2022-12-28T14:26:52;12.55;;;2.97;;
39188;SDS011;24915;50.858;4.376;2022-12-28T14:29:29;5.38;;;2.85;;
39188;SDS011;24915;50.858;4.376;2022-12-28T14:31:57;9.63;;;3.40;;
39188;SDS011;24915;50.858;4.376;2022-12-28T14:34:28;10.75;;;2.78;;
39188;SDS011;24915;50.858;4.376;2022-12-28T14:36:56;7.00;;;2.42;;
39188;SDS011;24915;50.858;4.376;2022-12-28T14:39:41;9.70;;;2.35;;
39188;SDS011;24915;50.858;4.376;2022-12-28T14:42:23;9.95;;;2.95;;
39188;SDS011;24915;50.858;4.376;2022-12-28T14:44:50;3.90;;;2.00;;
39188;SDS011;24915;50.858;4.376;2022-12-28T14:52:36;5.05;;;2.28;;
39188;SDS011;24915;50.858;4.376;2022-12-28T14:55:24;6.72;;;2.35;;
39188;SDS011;24915;50.858;4.376;2022-12-28T14:57:52;5.82;;;2.40;;
39188;SDS011;24915;50.858;4.376;2022-12-28T15:00:23;8.40;;;2.35;;
39188;SDS011;24915;50.858;4.376;2022-12-28T15:02:51;7.10;;;2.33;;
39188;SDS011;24915;50.858;4.376;2022-12-28T15:08:01;12.38;;;5.10;;
39188;SDS011;24915;50.858;4.376;2022-12-28T15:10:27;11.38;;;4.55;;
39188;SDS011;24915;50.858;4.376;2022-12-28T15:12:53;12.73;;;8.18;;
39188;SDS011;24915;50.858;4.376;2022-12-28T15:15:19;11.68;;;5.30;;
39188;SDS011;24915;50.858;4.376;2022-12-28T15:17:46;11.50;;;3.75;;
39188;SDS011;24915;50.858;4.376;2022-12-28T15:20:11;9.55;;;3.92;;
39188;SDS011;24915;50.858;4.376;2022-12-28T15:22:38;5.50;;;3.20;;
39188;SDS011;24915;50.858;4.376;2022-12-28T15:25:04;7.63;;;4.30;;
39188;SDS011;24915;50.858;4.376;2022-12-28T15:27:30;9.23;;;4.13;;
39188;SDS011;24915;50.858;4.376;2022-12-28T15:29:56;12.20;;;7.32;;
39188;SDS011;24915;50.858;4.376;2022-12-28T15:32:21;10.35;;;3.03;;
39188;SDS011;24915;50.858;4.376;2022-12-28T15:34:47;15.75;;;4.80;;
39188;SDS011;24915;50.858;4.376;2022-12-28T15:37:12;7.85;;;3.53;;
39188;SDS011;24915;50.858;4.376;2022-12-28T15:39:38;10.00;;;3.75;;
39188;SDS011;24915;50.858;4.376;2022-12-28T15:42:04;7.70;;;3.60;;
39188;SDS011;24915;50.858;4.376;2022-12-28T15:44:29;13.48;;;3.28;;
39188;SDS011;24915;50.858;4.376;2022-12-28T15:46:55;6.70;;;2.65;;
39188;SDS011;24915;50.858;4.376;2022-12-28T15:49:21;5.70;;;2.47;;
39188;SDS011;24915;50.858;4.376;2022-12-28T15:51:46;11.15;;;2.90;;
39188;SDS011;24915;50.858;4.376;2022-12-28T15:54:12;7.32;;;2.70;;
39188;SDS011;24915;50.858;4.376;2022-12-28T15:56:39;4.57;;;2.72;;
39188;SDS011;24915;50.858;4.376;2022-12-28T15:59:06;11.63;;;4.07;;
39188;SDS011;24915;50.858;4.376;2022-12-28T16:01:37;21.67;;;9.10;;
39188;SDS011;24915;50.858;4.376;2022-12-28T16:04:05;23.98;;;9.43;;
39188;SDS011;24915;50.858;4.376;2022-12-28T16:06:31;30.08;;;10.23;;
39188;SDS011;24915;50.858;4.376;2022-12-28T16:08:58;31.42;;;10.45;;
39188;SDS011;24915;50.858;4.376;2022-12-28T16:11:25;28.38;;;10.27;;
39188;SDS011;24915;50.858;4.376;2022-12-28T16:13:59;17.52;;;6.10;;
39188;SDS011;24915;50.858;4.376;2022-12-28T16:16:38;14.10;;;5.45;;
39188;SDS011;24915;50.858;4.376;2022-12-28T16:19:04;10.10;;;4.68;;
39188;SDS011;24915;50.858;4.376;2022-12-28T16:21:31;19.88;;;7.45;;
39188;SDS011;24915;50.858;4.376;2022-12-28T16:23:57;21.88;;;9.40;;
39188;SDS011;24915;50.858;4.376;2022-12-28T16:26:23;14.93;;;6.45;;
39188;SDS011;24915;50.858;4.376;2022-12-28T16:28:50;28.20;;;9.63;;
39188;SDS011;24915;50.858;4.376;2022-12-28T16:31:20;30.48;;;10.30;;
39188;SDS011;24915;50.858;4.376;2022-12-28T16:33:50;16.38;;;6.05;;
39188;SDS011;24915;50.858;4.376;2022-12-28T16:36:17;9.48;;;5.43;;
39188;SDS011;24915;50.858;4.376;2022-12-28T16:38:44;13.20;;;6.03;;
39188;SDS011;24915;50.858;4.376;2022-12-28T16:41:09;15.18;;;6.05;;
39188;SDS011;24915;50.858;4.376;2022-12-28T16:43:36;14.38;;;6.70;;
39188;SDS011;24915;50.858;4.376;2022-12-28T16:46:05;11.10;;;4.60;;